< < Back
Terminal Aerodrome Forecast


Current Version              Previous Versions:   1  2  3  4  5  6  7  8  9  

Terminal Aerodrome Forecast

116
FTUS44 KBMX 271248 AAA
TAFMGM
TAF AMD
KMGM 271248Z 2713/2812 15005KT P6SM SCT045 SCT250
      TEMPO 2713/2715 BKN009
     FM271800 12009KT P6SM OVC250
     FM280300 11004KT P6SM SCT050 BKN250
     FM280600 00000KT P6SM OVC250=

Latest METAR

088
SAUS80 KWBC 272000 RRA
MTRMGM
METAR KMGM 271953Z 11008KT 10SM FEW050 FEW065 32/17 A3000 RMK AO2 SLP154
T03220167


USA.gov is the U.S. government's official web portal to all federal, state and local government web resources and services.